createdAt,value
2019-04-28T00:02:01.405Z,12.40
2019-04-28T00:04:32.020Z,12.40
2019-04-28T00:07:02.430Z,12.40
2019-04-28T00:09:32.806Z,12.40
2019-04-28T00:12:03.833Z,12.40
2019-04-28T00:14:34.360Z,12.40
2019-04-28T00:17:05.206Z,12.30
2019-04-28T00:19:36.032Z,12.30
2019-04-28T00:22:26.485Z,12.40
2019-04-28T00:25:01.593Z,12.30
2019-04-28T00:27:33.174Z,12.30
2019-04-28T00:30:03.943Z,12.30
2019-04-28T00:32:34.371Z,12.30
2019-04-28T00:35:05.908Z,12.30
2019-04-28T00:37:37.938Z,12.30
2019-04-28T00:40:12.468Z,12.30
2019-04-28T00:42:42.900Z,12.30
2019-04-28T00:45:14.484Z,12.30
2019-04-28T00:47:45.274Z,12.30
2019-04-28T00:50:15.831Z,12.30
2019-04-28T00:52:46.175Z,12.20
2019-04-28T00:55:16.554Z,12.20
2019-04-28T00:57:48.805Z,12.20
2019-04-28T01:00:23.119Z,12.20
2019-04-28T01:02:54.123Z,12.20
2019-04-28T01:05:24.888Z,12.20
2019-04-28T01:07:55.348Z,12.20
2019-04-28T01:10:27.166Z,12.20
2019-04-28T01:12:57.770Z,12.20
2019-04-28T01:15:45.838Z,12.20
2019-04-28T01:18:33.368Z,12.20
2019-04-28T01:21:03.970Z,12.20
2019-04-28T01:23:34.404Z,12.20
2019-04-28T01:26:05.258Z,12.20
2019-04-28T01:28:35.662Z,12.20
2019-04-28T01:31:13.264Z,12.10
2019-04-28T01:34:02.560Z,12.10
2019-04-28T01:36:33.874Z,12.10
2019-04-28T01:39:06.065Z,12.10
2019-04-28T01:41:36.871Z,12.10
2019-04-28T01:44:07.304Z,12.10
2019-04-28T01:46:39.932Z,12.10
2019-04-28T01:49:10.438Z,12.10
2019-04-28T01:51:41.606Z,12.10
2019-04-28T01:54:12.092Z,12.00
2019-04-28T01:56:42.584Z,12.00
2019-04-28T01:59:12.978Z,12.00
2019-04-28T02:01:43.673Z,12.00
2019-04-28T02:04:14.098Z,12.00
2019-04-28T02:06:44.524Z,12.00
2019-04-28T02:09:14.966Z,12.00
2019-04-28T02:11:45.363Z,12.00
2019-04-28T02:14:15.770Z,12.00
2019-04-28T02:16:46.173Z,12.00
2019-04-28T02:19:16.539Z,11.90
2019-04-28T02:21:59.507Z,12.00
2019-04-28T02:24:31.526Z,11.90
2019-04-28T02:27:02.219Z,11.90
2019-04-28T02:29:32.553Z,11.90
2019-04-28T02:32:03.933Z,11.90
2019-04-28T02:34:34.531Z,12.00
2019-04-28T02:37:04.950Z,11.90
2019-04-28T02:39:35.344Z,12.00
2019-04-28T02:42:05.768Z,12.00
2019-04-28T02:44:36.125Z,12.00
2019-04-28T02:47:06.458Z,12.00
2019-04-28T02:49:50.708Z,12.00
2019-04-28T02:52:41.468Z,12.00
2019-04-28T02:55:14.025Z,11.90
2019-04-28T02:57:44.661Z,11.90
2019-04-28T03:00:15.629Z,11.90
2019-04-28T03:02:46.325Z,11.90
2019-04-28T03:05:16.714Z,11.90
2019-04-28T03:07:47.136Z,11.90
2019-04-28T03:10:17.850Z,11.90
2019-04-28T03:12:51.339Z,11.80
2019-04-28T03:15:20.592Z,11.80
2019-04-28T03:17:53.236Z,11.80
2019-04-28T03:20:23.739Z,11.80
2019-04-28T03:22:54.763Z,11.80
2019-04-28T03:25:50.480Z,11.80
2019-04-28T03:28:41.762Z,11.70
2019-04-28T03:32:07.941Z,11.80
2019-04-28T03:34:04.214Z,11.80
2019-04-28T03:36:36.285Z,11.70
2019-04-28T03:39:10.840Z,11.80
2019-04-28T03:41:40.637Z,11.70
2019-04-28T03:44:11.561Z,11.70
2019-04-28T03:46:47.887Z,11.70
2019-04-28T03:49:34.644Z,11.70
2019-04-28T03:52:06.419Z,11.70
2019-04-28T03:54:37.000Z,11.70
2019-04-28T03:57:07.354Z,11.70
2019-04-28T03:59:37.734Z,11.70
2019-04-28T04:02:10.963Z,11.70
2019-04-28T04:04:41.465Z,11.70
2019-04-28T04:07:12.145Z,11.70
2019-04-28T04:10:00.985Z,11.70
2019-04-28T04:12:43.164Z,11.70
2019-04-28T04:15:54.120Z,11.70
2019-04-28T04:18:37.503Z,11.70
2019-04-28T04:21:10.865Z,11.70
2019-04-28T04:23:41.062Z,11.70
2019-04-28T04:26:13.139Z,11.70
2019-04-28T04:28:43.511Z,11.70
2019-04-28T04:31:13.915Z,11.70
2019-04-28T04:33:44.361Z,11.70
2019-04-28T04:36:17.127Z,11.80
2019-04-28T04:38:47.503Z,11.80
2019-04-28T04:41:17.920Z,11.80
2019-04-28T04:43:51.048Z,11.80
2019-04-28T04:46:25.128Z,11.80
2019-04-28T04:48:55.486Z,11.80
2019-04-28T04:51:25.835Z,11.80
2019-04-28T04:53:56.327Z,11.80
2019-04-28T04:56:26.692Z,11.90
2019-04-28T04:58:57.166Z,11.90
2019-04-28T05:02:01.996Z,11.90
2019-04-28T05:04:56.584Z,11.90
2019-04-28T05:07:26.952Z,11.90
2019-04-28T05:09:59.534Z,11.90
2019-04-28T05:12:30.648Z,11.90
2019-04-28T05:15:01.063Z,11.90
2019-04-28T05:17:32.954Z,11.80
2019-04-28T05:20:04.132Z,11.80
2019-04-28T05:22:39.983Z,11.80
2019-04-28T05:25:20.420Z,11.90
2019-04-28T05:27:54.615Z,11.90
2019-04-28T05:30:22.921Z,12.00
2019-04-28T05:32:56.182Z,12.00
2019-04-28T05:35:25.310Z,12.00
2019-04-28T05:37:55.628Z,12.00
2019-04-28T05:40:26.381Z,12.00
2019-04-28T05:43:02.285Z,12.10
2019-04-28T05:45:32.713Z,12.10
2019-04-28T05:48:03.219Z,12.10
2019-04-28T05:50:41.781Z,12.20
2019-04-28T05:53:21.749Z,12.30
2019-04-28T05:56:00.167Z,12.30
2019-04-28T05:59:01.582Z,12.40
2019-04-28T06:01:50.629Z,12.40
2019-04-28T06:04:24.174Z,12.50
2019-04-28T06:06:59.667Z,12.50
2019-04-28T06:09:34.491Z,12.50
2019-04-28T06:12:06.224Z,12.40
2019-04-28T06:14:36.584Z,12.40
2019-04-28T06:17:06.967Z,12.50
2019-04-28T06:19:37.409Z,12.40
2019-04-28T06:22:08.980Z,12.40
2019-04-28T06:24:39.447Z,12.40
2019-04-28T06:27:09.843Z,12.50
2019-04-28T06:29:40.627Z,12.60
2019-04-28T06:32:11.497Z,12.70
2019-04-28T06:34:41.849Z,12.80
2019-04-28T06:37:12.259Z,12.80
2019-04-28T06:39:42.698Z,12.70
2019-04-28T06:42:14.713Z,12.80
2019-04-28T06:44:45.086Z,12.90
2019-04-28T06:47:16.938Z,12.90
2019-04-28T06:49:47.667Z,12.90
2019-04-28T06:52:18.075Z,12.90
2019-04-28T06:54:48.537Z,12.80
2019-04-28T06:57:18.921Z,12.90
2019-04-28T06:59:49.480Z,12.90
2019-04-28T07:02:20.217Z,13.00
2019-04-28T07:05:01.223Z,13.00
2019-04-28T07:07:22.719Z,13.00
2019-04-28T07:09:53.069Z,13.00
2019-04-28T07:12:23.557Z,13.00
2019-04-28T07:14:54.365Z,13.00
2019-04-28T07:17:24.835Z,13.00
2019-04-28T07:20:14.174Z,13.00
2019-04-28T07:22:44.883Z,13.00
2019-04-28T07:25:15.437Z,13.00
2019-04-28T07:27:46.060Z,13.00
2019-04-28T07:30:18.023Z,13.00
2019-04-28T07:32:48.409Z,12.90
2019-04-28T07:35:18.823Z,12.80
2019-04-28T07:37:49.258Z,12.90
2019-04-28T07:40:19.623Z,12.80
2019-04-28T07:42:50.033Z,12.70
2019-04-28T07:45:20.646Z,12.70
2019-04-28T07:47:51.035Z,12.70
2019-04-28T07:50:21.657Z,12.70
2019-04-28T07:52:57.193Z,12.60
2019-04-28T07:55:27.645Z,12.60
2019-04-28T07:57:58.123Z,12.60
2019-04-28T08:00:30.423Z,12.70
2019-04-28T08:03:00.991Z,12.70
2019-04-28T08:05:31.353Z,12.70
2019-04-28T08:08:01.825Z,12.80
2019-04-28T08:10:32.201Z,12.90
2019-04-28T08:13:02.732Z,13.00
2019-04-28T08:15:33.101Z,13.10
2019-04-28T08:18:04.813Z,13.10
2019-04-28T08:20:35.651Z,13.20
2019-04-28T08:23:06.075Z,13.20
2019-04-28T08:25:36.474Z,13.10
2019-04-28T08:28:06.843Z,13.20
2019-04-28T08:30:37.191Z,13.30
2019-04-28T08:33:26.268Z,13.30
2019-04-28T08:35:57.932Z,13.50
2019-04-28T08:38:28.498Z,13.70
2019-04-28T08:40:59.181Z,13.80
2019-04-28T08:43:29.557Z,13.80
2019-04-28T08:46:00.027Z,13.80
2019-04-28T08:48:30.657Z,13.80
2019-04-28T08:51:01.027Z,13.80
2019-04-28T08:53:31.423Z,13.70
2019-04-28T08:56:01.840Z,13.70
2019-04-28T08:58:32.214Z,13.70
2019-04-28T09:01:02.908Z,13.70
2019-04-28T09:03:33.305Z,13.60
2019-04-28T09:06:03.606Z,13.50
2019-04-28T09:08:34.432Z,13.30
2019-04-28T09:11:04.765Z,13.20
2019-04-28T09:13:35.275Z,13.20
2019-04-28T09:16:05.643Z,13.10
2019-04-28T09:18:36.003Z,13.00
2019-04-28T09:21:06.391Z,13.00
2019-04-28T09:23:36.947Z,13.00
2019-04-28T09:26:07.351Z,13.10
2019-04-28T09:28:37.741Z,13.10
2019-04-28T09:31:08.498Z,13.10
2019-04-28T09:33:38.891Z,13.10
2019-04-28T09:36:09.277Z,13.10
2019-04-28T09:38:40.841Z,13.10
2019-04-28T09:41:11.248Z,13.00
2019-04-28T09:44:12.655Z,13.00
2019-04-28T09:46:43.665Z,13.00
2019-04-28T09:49:14.049Z,13.00
2019-04-28T09:51:44.447Z,13.00
2019-04-28T09:54:14.881Z,12.90
2019-04-28T09:56:56.603Z,12.90
2019-04-28T09:59:18.703Z,12.90
2019-04-28T10:01:49.203Z,12.90
2019-04-28T10:04:19.558Z,12.90
2019-04-28T10:06:49.975Z,12.90
2019-04-28T10:09:20.829Z,12.80
2019-04-28T10:11:51.213Z,12.80
2019-04-28T10:14:21.643Z,12.80
2019-04-28T10:16:52.041Z,12.80
2019-04-28T10:19:22.643Z,12.80
2019-04-28T10:21:53.056Z,12.80
2019-04-28T10:24:23.532Z,12.80
2019-04-28T10:26:54.234Z,12.70
2019-04-28T10:29:24.665Z,12.70
2019-04-28T10:31:55.323Z,12.60
2019-04-28T10:34:25.675Z,12.60
2019-04-28T10:36:56.103Z,12.60
2019-04-28T10:39:42.189Z,12.60
2019-04-28T10:42:12.627Z,12.60
2019-04-28T10:44:45.185Z,12.60
2019-04-28T10:47:16.022Z,12.60
2019-04-28T10:49:46.429Z,12.70
2019-04-28T10:52:16.835Z,12.70
2019-04-28T10:54:47.283Z,12.60
2019-04-28T10:57:17.637Z,12.60
2019-04-28T10:59:48.027Z,12.60
2019-04-28T11:02:18.549Z,12.60
2019-04-28T11:05:07.834Z,12.60
2019-04-28T11:07:29.519Z,12.60
2019-04-28T11:10:07.243Z,12.60
2019-04-28T11:12:37.897Z,12.60
2019-04-28T11:15:12.990Z,12.60
2019-04-28T11:17:43.296Z,12.60
2019-04-28T11:20:14.726Z,12.60
2019-04-28T11:22:45.087Z,12.70
2019-04-28T11:25:15.504Z,12.80
2019-04-28T11:27:45.931Z,12.90
2019-04-28T11:30:17.362Z,13.00
2019-04-28T11:33:00.101Z,13.00
2019-04-28T11:35:31.463Z,13.20
2019-04-28T11:38:01.860Z,13.20
2019-04-28T11:40:33.429Z,13.20
2019-04-28T11:43:04.151Z,13.20
2019-04-28T11:45:34.740Z,13.10
2019-04-28T11:48:05.296Z,13.10
2019-04-28T11:50:35.785Z,13.00
2019-04-28T11:53:06.587Z,12.90
2019-04-28T11:55:38.047Z,12.80
2019-04-28T11:58:08.451Z,12.70
2019-04-28T12:00:39.427Z,12.70
2019-04-28T12:03:09.923Z,12.70
2019-04-28T12:05:46.157Z,12.70
2019-04-28T12:08:16.575Z,12.60
2019-04-28T12:10:52.529Z,12.70
2019-04-28T12:13:53.985Z,12.70
2019-04-28T12:16:45.757Z,12.70
2019-04-28T12:19:37.880Z,12.60
2019-04-28T12:22:09.649Z,12.60
2019-04-28T12:24:40.108Z,12.60
2019-04-28T12:27:10.514Z,12.60
2019-04-28T12:29:40.934Z,12.60
2019-04-28T12:32:11.335Z,12.50
2019-04-28T12:34:41.815Z,12.50
2019-04-28T12:37:12.318Z,12.60
2019-04-28T12:39:42.736Z,12.60
2019-04-28T12:42:13.129Z,12.50
2019-04-28T12:44:43.480Z,12.50
2019-04-28T12:47:13.925Z,12.50
2019-04-28T12:49:52.730Z,12.50
2019-04-28T12:52:23.346Z,12.40
2019-04-28T12:54:53.662Z,12.50
2019-04-28T12:57:24.087Z,12.50
2019-04-28T13:00:03.740Z,12.50
2019-04-28T13:02:59.364Z,12.40
2019-04-28T13:05:31.038Z,12.50
2019-04-28T13:08:01.658Z,12.50
2019-04-28T13:10:31.981Z,12.40
2019-04-28T13:13:02.417Z,12.40
2019-04-28T13:15:32.766Z,12.40
2019-04-28T13:18:03.190Z,12.50
2019-04-28T13:20:34.531Z,12.50
2019-04-28T13:23:04.978Z,12.40
2019-04-28T13:25:36.644Z,12.40
2019-04-28T13:28:07.125Z,12.40
2019-04-28T13:30:38.100Z,12.40
2019-04-28T13:33:08.565Z,12.30
2019-04-28T13:35:40.081Z,12.30
2019-04-28T13:38:10.448Z,12.30
2019-04-28T13:40:41.737Z,12.30
2019-04-28T13:43:12.136Z,12.30
2019-04-28T13:45:42.533Z,12.30
2019-04-28T13:48:12.976Z,12.30
2019-04-28T13:50:43.451Z,12.30
2019-04-28T13:53:13.902Z,12.30
2019-04-28T13:56:01.355Z,12.20
2019-04-28T13:58:44.660Z,12.20
2019-04-28T14:01:32.946Z,12.20
2019-04-28T14:04:28.712Z,12.20
2019-04-28T14:07:04.017Z,12.20
2019-04-28T14:09:34.425Z,12.20
2019-04-28T14:12:04.846Z,12.30
2019-04-28T14:14:35.214Z,12.30
2019-04-28T14:17:07.793Z,12.20
2019-04-28T14:19:38.595Z,12.30
2019-04-28T14:22:10.182Z,12.30
2019-04-28T14:24:40.664Z,12.20
2019-04-28T14:27:11.136Z,12.20
2019-04-28T14:29:41.577Z,12.20
2019-04-28T14:32:12.028Z,12.10
2019-04-28T14:34:42.336Z,12.10
2019-04-28T14:37:12.737Z,12.10
2019-04-28T14:39:43.088Z,12.10
2019-04-28T14:42:13.700Z,12.00
2019-04-28T14:44:44.152Z,12.00
2019-04-28T14:47:14.565Z,12.00
2019-04-28T14:49:46.132Z,12.00
2019-04-28T14:52:16.524Z,12.00
2019-04-28T14:54:46.957Z,12.10
2019-04-28T14:57:17.340Z,12.10
2019-04-28T14:59:49.063Z,12.20
2019-04-28T15:02:26.329Z,12.10
2019-04-28T15:05:21.786Z,12.20
2019-04-28T15:08:09.554Z,12.20
2019-04-28T15:10:59.212Z,12.20
2019-04-28T15:13:30.064Z,12.20
2019-04-28T15:16:00.644Z,12.20
2019-04-28T15:18:31.400Z,12.20
2019-04-28T15:21:01.759Z,12.20
2019-04-28T15:23:32.182Z,12.20
2019-04-28T15:26:02.572Z,12.20
2019-04-28T15:28:32.992Z,12.20
2019-04-28T15:31:03.385Z,12.20
2019-04-28T15:33:33.733Z,12.20
2019-04-28T15:36:04.091Z,12.20
2019-04-28T15:38:36.928Z,12.20
2019-04-28T15:41:20.542Z,12.20
2019-04-28T15:43:39.638Z,12.20
2019-04-28T15:46:10.340Z,12.20
2019-04-28T15:48:40.756Z,12.20
2019-04-28T15:51:11.122Z,12.20
2019-04-28T15:53:43.249Z,12.20
2019-04-28T15:56:50.914Z,12.20
2019-04-28T15:59:23.514Z,12.20
2019-04-28T16:01:53.884Z,12.20
2019-04-28T16:04:24.310Z,12.20
2019-04-28T16:06:54.701Z,12.20
2019-04-28T16:09:25.125Z,12.20
2019-04-28T16:11:55.630Z,12.20
2019-04-28T16:14:26.107Z,12.20
2019-04-28T16:16:56.568Z,12.10
2019-04-28T16:19:27.096Z,12.10
2019-04-28T16:21:57.662Z,12.00
2019-04-28T16:24:28.006Z,12.00
2019-04-28T16:26:58.412Z,12.00
2019-04-28T16:29:28.816Z,11.90
2019-04-28T16:31:59.204Z,11.90
2019-04-28T16:34:29.676Z,11.90
2019-04-28T16:37:00.119Z,11.90
2019-04-28T16:39:30.456Z,11.80
2019-04-28T16:42:07.788Z,11.80
2019-04-28T16:44:38.182Z,11.80
2019-04-28T16:47:08.562Z,11.80
2019-04-28T16:49:38.966Z,11.80
2019-04-28T16:52:09.314Z,11.80
2019-04-28T16:54:39.693Z,11.80
2019-04-28T16:57:30.470Z,11.80
2019-04-28T17:00:12.966Z,11.80
2019-04-28T17:02:49.200Z,11.80
2019-04-28T17:05:19.976Z,11.80
2019-04-28T17:07:53.196Z,11.80
2019-04-28T17:10:22.719Z,11.80
2019-04-28T17:12:53.120Z,11.70
2019-04-28T17:15:23.514Z,11.80
2019-04-28T17:17:53.888Z,11.70
2019-04-28T17:20:24.305Z,11.70
2019-04-28T17:22:54.886Z,11.70
2019-04-28T17:25:25.345Z,11.60
2019-04-28T17:27:55.810Z,11.70
2019-04-28T17:30:26.756Z,11.60
2019-04-28T17:32:57.135Z,11.70
2019-04-28T17:35:27.518Z,11.60
2019-04-28T17:38:06.451Z,11.60
2019-04-28T17:40:30.408Z,11.60
2019-04-28T17:43:00.770Z,11.60
2019-04-28T17:45:31.128Z,11.60
2019-04-28T17:48:08.575Z,11.60
2019-04-28T17:50:39.246Z,11.60
2019-04-28T17:53:09.802Z,11.60
2019-04-28T17:55:40.381Z,11.60
2019-04-28T17:58:10.810Z,11.60
2019-04-28T18:00:58.848Z,11.60
2019-04-28T18:03:42.838Z,11.50
2019-04-28T18:06:17.879Z,11.50
2019-04-28T18:08:48.989Z,11.50
2019-04-28T18:11:19.687Z,11.50
2019-04-28T18:13:50.037Z,11.50
2019-04-28T18:16:28.772Z,11.50
2019-04-28T18:19:05.942Z,11.50
2019-04-28T18:21:36.284Z,11.50
2019-04-28T18:24:06.744Z,11.50
2019-04-28T18:26:37.159Z,11.50
2019-04-28T18:29:07.595Z,11.40
2019-04-28T18:31:55.990Z,11.40
2019-04-28T18:34:40.945Z,11.40
2019-04-28T18:37:30.252Z,11.40
2019-04-28T18:40:28.560Z,11.30
2019-04-28T18:43:30.000Z,11.40
2019-04-28T18:46:00.364Z,11.30
2019-04-28T18:48:30.764Z,11.30
2019-04-28T18:51:01.143Z,11.30
2019-04-28T18:53:31.665Z,11.30
2019-04-28T18:56:03.122Z,11.30
2019-04-28T18:58:33.585Z,11.30
2019-04-28T19:01:14.080Z,11.30
2019-04-28T19:03:44.456Z,11.30
2019-04-28T19:06:15.364Z,11.30
2019-04-28T19:09:03.247Z,11.30
2019-04-28T19:11:43.609Z,11.40
2019-04-28T19:14:27.246Z,11.30
2019-04-28T19:17:31.567Z,11.40
2019-04-28T19:20:02.030Z,11.40
2019-04-28T19:22:43.991Z,11.40
2019-04-28T19:25:14.775Z,11.40
2019-04-28T19:27:45.566Z,11.40
2019-04-28T19:30:16.177Z,11.40
2019-04-28T19:32:46.684Z,11.40
2019-04-28T19:35:17.079Z,11.50
2019-04-28T19:37:48.051Z,11.50
2019-04-28T19:40:18.461Z,11.50
2019-04-28T19:42:49.140Z,11.50
2019-04-28T19:45:20.567Z,11.40
2019-04-28T19:47:50.963Z,11.50
2019-04-28T19:50:21.642Z,11.50
2019-04-28T19:52:56.155Z,11.50
2019-04-28T19:55:32.200Z,11.50
2019-04-28T19:58:33.656Z,11.50
2019-04-28T20:01:13.775Z,11.50
2019-04-28T20:03:44.460Z,11.50
2019-04-28T20:06:14.965Z,11.50
2019-04-28T20:08:45.313Z,11.50
2019-04-28T20:11:15.776Z,11.50
2019-04-28T20:13:46.534Z,11.50
2019-04-28T20:16:16.968Z,11.50
2019-04-28T20:18:49.011Z,11.50
2019-04-28T20:21:19.523Z,11.50
2019-04-28T20:23:50.024Z,11.50
2019-04-28T20:26:20.557Z,11.40
2019-04-28T20:28:51.019Z,11.50
2019-04-28T20:31:21.710Z,11.50
2019-04-28T20:33:52.085Z,11.50
2019-04-28T20:36:33.101Z,11.50
2019-04-28T20:39:10.049Z,11.50
2019-04-28T20:41:42.111Z,11.50
2019-04-28T20:44:12.471Z,11.50
2019-04-28T20:46:42.854Z,11.50
2019-04-28T20:49:13.527Z,11.50
2019-04-28T20:51:43.930Z,11.50
2019-04-28T20:54:14.356Z,11.50
2019-04-28T20:56:44.706Z,11.50
2019-04-28T20:59:15.165Z,11.60
2019-04-28T21:01:45.688Z,11.60
2019-04-28T21:04:16.040Z,11.50
2019-04-28T21:06:46.696Z,11.60
2019-04-28T21:09:17.104Z,11.50
2019-04-28T21:11:47.627Z,11.60
2019-04-28T21:14:20.623Z,11.50
2019-04-28T21:16:50.046Z,11.60
2019-04-28T21:19:20.384Z,11.60
2019-04-28T21:21:50.848Z,11.60
2019-04-28T21:24:21.181Z,11.60
2019-04-28T21:26:51.613Z,11.60
2019-04-28T21:29:22.033Z,11.60
2019-04-28T21:31:52.447Z,11.60
2019-04-28T21:34:23.295Z,11.60
2019-04-28T21:36:53.724Z,11.60
2019-04-28T21:39:24.137Z,11.60
2019-04-28T21:41:55.459Z,11.60
2019-04-28T21:44:50.799Z,11.60
2019-04-28T21:47:24.510Z,11.60
2019-04-28T21:49:54.870Z,11.60
2019-04-28T21:52:25.261Z,11.60
2019-04-28T21:54:55.591Z,11.60
2019-04-28T21:57:26.225Z,11.60
2019-04-28T21:59:56.617Z,11.60
2019-04-28T22:02:28.588Z,11.60
2019-04-28T22:04:59.117Z,11.60
2019-04-28T22:07:30.715Z,11.60
2019-04-28T22:10:02.434Z,11.60
2019-04-28T22:12:33.289Z,11.60
2019-04-28T22:15:03.665Z,11.60
2019-04-28T22:17:34.058Z,11.70
2019-04-28T22:20:04.799Z,11.70
2019-04-28T22:22:35.173Z,11.70
2019-04-28T22:25:13.505Z,11.70
2019-04-28T22:27:43.876Z,11.70
2019-04-28T22:30:15.734Z,11.70
2019-04-28T22:32:46.153Z,11.70
2019-04-28T22:35:16.809Z,11.70
2019-04-28T22:37:47.215Z,11.70
2019-04-28T22:40:17.689Z,11.70
2019-04-28T22:42:48.349Z,11.70
2019-04-28T22:45:18.697Z,11.70
2019-04-28T22:47:49.333Z,11.70
2019-04-28T22:50:37.481Z,11.70
2019-04-28T22:53:08.375Z,11.70
2019-04-28T22:55:46.919Z,11.70
2019-04-28T22:58:35.993Z,11.70
2019-04-28T23:01:37.683Z,11.70
2019-04-28T23:04:11.663Z,11.70
2019-04-28T23:06:42.161Z,11.70
2019-04-28T23:09:14.563Z,11.70
2019-04-28T23:11:44.965Z,11.70
2019-04-28T23:14:15.333Z,11.70
2019-04-28T23:16:45.747Z,11.70
2019-04-28T23:19:17.713Z,11.70
2019-04-28T23:22:00.145Z,11.70
2019-04-28T23:24:30.481Z,11.70
2019-04-28T23:27:02.057Z,11.70
2019-04-28T23:29:32.395Z,11.80
2019-04-28T23:32:03.274Z,11.80
2019-04-28T23:34:33.570Z,11.70
2019-04-28T23:37:04.051Z,11.70
2019-04-28T23:39:34.379Z,11.70
2019-04-28T23:42:17.040Z,11.80
2019-04-28T23:44:47.355Z,11.80
2019-04-28T23:47:18.075Z,11.80
2019-04-28T23:49:48.831Z,11.80
2019-04-28T23:52:47.086Z,11.80
2019-04-28T23:55:20.061Z,11.80
2019-04-28T23:57:50.355Z,11.80
